createdAt,value
2019-03-15T00:02:03.183Z,95856.55
2019-03-15T00:04:29.023Z,95852.56
2019-03-15T00:06:55.116Z,95870.26
2019-03-15T00:09:20.935Z,95869.23
2019-03-15T00:11:46.759Z,95870.66
2019-03-15T00:14:12.636Z,95870.81
2019-03-15T00:16:38.490Z,95877.12
2019-03-15T00:19:04.388Z,95872.39
2019-03-15T00:21:30.466Z,95873.40
2019-03-15T00:23:56.278Z,95884.10
2019-03-15T00:26:22.359Z,95882.16
2019-03-15T00:28:48.151Z,95890.02
2019-03-15T00:31:14.235Z,95891.46
2019-03-15T00:33:40.053Z,95889.80
2019-03-15T00:36:05.865Z,95887.22
2019-03-15T00:38:31.714Z,95888.44
2019-03-15T00:40:57.519Z,95892.75
2019-03-15T00:43:23.363Z,95895.60
2019-03-15T00:45:49.152Z,95895.31
2019-03-15T00:48:15.260Z,95901.22
2019-03-15T00:50:41.398Z,95904.95
2019-03-15T00:53:10.723Z,95903.36
2019-03-15T00:55:36.572Z,95910.48
2019-03-15T00:58:02.532Z,95913.17
2019-03-15T01:00:28.646Z,95916.50
2019-03-15T01:02:57.569Z,95903.50
2019-03-15T01:05:23.699Z,95910.52
2019-03-15T01:07:53.155Z,95909.08
2019-03-15T01:10:19.368Z,95924.36
2019-03-15T01:12:45.191Z,95909.23
2019-03-15T01:15:33.338Z,95909.78
2019-03-15T01:17:59.374Z,95907.94
2019-03-15T01:20:25.441Z,95907.30
2019-03-15T01:22:51.280Z,95913.95
2019-03-15T01:25:17.185Z,95907.48
2019-03-15T01:27:43.041Z,95916.45
2019-03-15T01:30:10.711Z,95919.11
2019-03-15T01:32:36.522Z,95918.93
2019-03-15T01:35:04.523Z,95912.58
2019-03-15T01:37:30.578Z,95914.66
2019-03-15T01:39:56.399Z,95914.28
2019-03-15T01:42:22.286Z,95906.16
2019-03-15T01:44:48.384Z,95922.22
2019-03-15T01:47:14.465Z,95917.20
2019-03-15T01:49:40.302Z,95910.23
2019-03-15T01:52:06.149Z,95913.84
2019-03-15T01:54:31.969Z,95922.63
2019-03-15T01:56:58.095Z,95923.95
2019-03-15T01:59:24.200Z,95917.04
2019-03-15T02:01:50.018Z,95918.73
2019-03-15T02:04:15.833Z,95920.94
2019-03-15T02:06:41.664Z,95911.38
2019-03-15T02:09:09.220Z,95915.17
2019-03-15T02:11:35.319Z,95920.70
2019-03-15T02:14:01.706Z,95921.66
2019-03-15T02:16:27.969Z,95917.62
2019-03-15T02:18:53.808Z,95916.22
2019-03-15T02:21:22.700Z,95923.55
2019-03-15T02:23:48.821Z,95939.41
2019-03-15T02:26:14.655Z,95914.58
2019-03-15T02:28:40.507Z,95918.72
2019-03-15T02:31:06.598Z,95917.53
2019-03-15T02:33:35.436Z,95916.88
2019-03-15T02:36:01.560Z,95916.23
2019-03-15T02:38:28.516Z,95913.36
2019-03-15T02:40:54.337Z,95931.11
2019-03-15T02:43:25.751Z,95929.64
2019-03-15T02:45:51.838Z,95905.34
2019-03-15T02:48:20.405Z,95899.25
2019-03-15T02:50:46.233Z,95913.55
2019-03-15T02:53:14.943Z,95901.55
2019-03-15T02:55:40.817Z,95908.56
2019-03-15T02:58:09.593Z,95892.87
2019-03-15T03:00:35.493Z,95910.67
2019-03-15T03:03:01.285Z,95899.13
2019-03-15T03:05:27.149Z,95900.95
2019-03-15T03:07:52.945Z,95906.67
2019-03-15T03:10:21.522Z,95920.31
2019-03-15T03:12:47.372Z,95953.25
2019-03-15T03:15:15.984Z,95937.82
2019-03-15T03:17:41.814Z,95949.19
2019-03-15T03:20:08.972Z,95942.80
2019-03-15T03:22:37.886Z,95948.86
2019-03-15T03:25:04.676Z,95942.84
2019-03-15T03:27:30.494Z,95946.65
2019-03-15T03:29:59.442Z,95822.40
2019-03-15T03:32:25.276Z,95945.47
2019-03-15T03:34:53.922Z,95949.26
2019-03-15T03:37:20.061Z,95976.63
2019-03-15T03:39:45.852Z,95957.41
2019-03-15T03:42:11.788Z,95972.16
2019-03-15T03:44:37.619Z,95954.68
2019-03-15T03:47:05.210Z,95954.13
2019-03-15T03:49:31.017Z,95914.94
2019-03-15T03:52:02.663Z,95953.46
2019-03-15T03:54:29.037Z,95940.00
2019-03-15T03:56:55.318Z,95934.84
2019-03-15T03:59:21.235Z,95928.19
2019-03-15T04:01:50.143Z,95923.77
2019-03-15T04:04:15.976Z,95940.55
2019-03-15T04:06:44.886Z,95916.64
2019-03-15T04:09:10.734Z,95939.58
2019-03-15T04:11:39.858Z,95924.09
2019-03-15T04:14:05.968Z,95945.48
2019-03-15T04:16:31.793Z,95929.19
2019-03-15T04:18:57.912Z,95923.69
2019-03-15T04:21:23.715Z,95924.80
2019-03-15T04:23:52.709Z,95918.45
2019-03-15T04:26:18.559Z,95940.55
2019-03-15T04:28:47.497Z,95918.49
2019-03-15T04:31:13.596Z,95931.92
2019-03-15T04:33:39.438Z,95926.50
2019-03-15T04:36:05.255Z,95925.69
2019-03-15T04:38:33.860Z,95921.66
2019-03-15T04:40:59.691Z,95905.30
2019-03-15T04:43:30.020Z,95926.96
2019-03-15T04:45:55.840Z,95927.77
2019-03-15T04:48:23.731Z,95925.77
2019-03-15T04:50:49.776Z,95934.48
2019-03-15T04:53:15.601Z,95925.62
2019-03-15T04:55:41.461Z,95928.67
2019-03-15T04:58:07.251Z,95924.08
2019-03-15T05:00:35.899Z,95928.14
2019-03-15T05:03:01.716Z,95939.77
2019-03-15T05:05:30.413Z,95934.97
2019-03-15T05:07:56.243Z,95932.38
2019-03-15T05:10:27.113Z,95934.45
2019-03-15T05:12:52.950Z,95934.34
2019-03-15T05:15:22.083Z,95934.84
2019-03-15T05:17:47.912Z,95945.06
2019-03-15T05:20:14.648Z,95924.48
2019-03-15T05:22:40.479Z,95925.67
2019-03-15T05:25:09.384Z,95927.45
2019-03-15T05:27:35.183Z,95924.65
2019-03-15T05:30:01.181Z,95930.75
2019-03-15T05:32:26.999Z,95923.55
2019-03-15T05:34:53.142Z,95925.39
2019-03-15T05:37:21.732Z,95921.38
2019-03-15T05:39:47.804Z,95936.81
2019-03-15T05:42:16.389Z,95923.68
2019-03-15T05:44:42.249Z,95821.36
2019-03-15T05:47:10.559Z,95926.45
2019-03-15T05:49:36.441Z,95924.42
2019-03-15T05:52:05.009Z,95925.35
2019-03-15T05:54:30.861Z,95926.43
2019-03-15T05:56:59.138Z,95929.73
2019-03-15T05:59:25.334Z,95918.66
2019-03-15T06:01:55.676Z,95924.74
2019-03-15T06:04:21.498Z,95914.96
2019-03-15T06:06:47.330Z,95922.05
2019-03-15T06:09:13.175Z,95917.15
2019-03-15T06:11:39.070Z,95924.98
2019-03-15T06:14:06.044Z,95930.77
2019-03-15T06:16:31.875Z,95928.08
2019-03-15T06:19:02.471Z,95922.91
2019-03-15T06:21:28.320Z,95925.36
2019-03-15T06:23:55.797Z,95933.06
2019-03-15T06:26:21.632Z,95932.63
2019-03-15T06:28:50.321Z,95938.79
2019-03-15T06:31:16.282Z,95929.20
2019-03-15T06:33:45.521Z,95926.61
2019-03-15T06:36:11.373Z,95933.80
2019-03-15T06:38:40.027Z,95932.52
2019-03-15T06:41:05.851Z,95942.25
2019-03-15T06:43:31.948Z,95925.09
2019-03-15T06:45:58.090Z,95922.70
2019-03-15T06:48:24.186Z,95918.97
2019-03-15T06:50:53.056Z,95914.36
2019-03-15T06:53:19.149Z,95932.43
2019-03-15T06:55:46.142Z,95919.89
2019-03-15T06:58:11.989Z,95918.38
2019-03-15T07:00:40.918Z,95926.52
2019-03-15T07:03:06.714Z,95939.58
2019-03-15T07:05:37.389Z,95926.30
2019-03-15T07:08:03.502Z,95933.38
2019-03-15T07:10:32.302Z,95925.31
2019-03-15T07:12:58.298Z,95941.79
2019-03-15T07:15:27.423Z,95933.38
2019-03-15T07:17:53.541Z,95923.52
2019-03-15T07:20:20.250Z,95921.54
2019-03-15T07:22:46.499Z,95916.67
2019-03-15T07:25:12.419Z,95914.98
2019-03-15T07:27:38.252Z,95909.45
2019-03-15T07:30:07.571Z,95908.11
2019-03-15T07:32:33.667Z,95899.08
2019-03-15T07:34:59.487Z,95898.20
2019-03-15T07:37:28.393Z,95899.89
2019-03-15T07:39:54.261Z,95893.58
2019-03-15T07:42:23.124Z,95888.27
2019-03-15T07:44:49.235Z,95885.25
2019-03-15T07:47:18.137Z,95888.27
2019-03-15T07:49:44.271Z,95884.80
2019-03-15T07:52:10.106Z,95894.88
2019-03-15T07:54:38.374Z,95880.56
2019-03-15T07:57:03.754Z,95876.80
2019-03-15T07:59:29.611Z,95866.95
2019-03-15T08:01:55.465Z,95862.82
2019-03-15T08:04:24.859Z,95858.80
2019-03-15T08:06:51.006Z,95871.34
2019-03-15T08:09:17.225Z,95842.84
2019-03-15T08:11:43.063Z,95848.02
2019-03-15T08:14:11.663Z,95846.64
2019-03-15T08:16:37.468Z,95848.75
2019-03-15T08:19:05.987Z,95848.48
2019-03-15T08:21:31.826Z,95842.44
2019-03-15T08:24:02.675Z,95851.94
2019-03-15T08:26:30.177Z,95873.05
2019-03-15T08:28:56.196Z,95848.99
2019-03-15T08:31:23.452Z,95845.70
2019-03-15T08:33:49.356Z,95848.80
2019-03-15T08:36:15.433Z,95836.44
2019-03-15T08:38:47.343Z,95837.55
2019-03-15T08:41:08.979Z,95834.44
2019-03-15T08:43:34.804Z,95830.56
2019-03-15T08:46:04.166Z,95821.70
2019-03-15T08:48:31.943Z,95841.45
2019-03-15T08:50:57.697Z,95814.16
2019-03-15T08:53:23.523Z,95807.33
2019-03-15T08:55:52.385Z,95815.46
2019-03-15T08:58:21.978Z,95834.49
2019-03-15T09:00:46.007Z,95818.97
2019-03-15T09:03:12.113Z,95821.20
2019-03-15T09:05:40.928Z,95809.04
2019-03-15T09:08:06.720Z,95806.34
2019-03-15T09:10:32.562Z,95818.07
2019-03-15T09:12:58.705Z,95810.80
2019-03-15T09:15:24.517Z,95807.37
2019-03-15T09:17:53.384Z,95803.85
2019-03-15T09:20:19.576Z,95821.03
2019-03-15T09:22:48.331Z,95806.06
2019-03-15T09:25:19.698Z,95818.63
2019-03-15T09:27:45.403Z,95794.21
2019-03-15T09:30:22.510Z,95800.31
2019-03-15T09:32:40.491Z,95807.41
2019-03-15T09:35:06.442Z,95807.39
2019-03-15T09:37:32.527Z,95795.55
2019-03-15T09:39:58.334Z,95796.34
2019-03-15T09:42:27.583Z,95798.62
2019-03-15T09:44:53.454Z,95811.82
2019-03-15T09:47:19.260Z,95813.84
2019-03-15T09:49:45.067Z,95814.03
2019-03-15T09:52:11.827Z,95787.11
2019-03-15T09:54:38.439Z,95790.86
2019-03-15T09:57:04.398Z,95801.89
2019-03-15T09:59:33.031Z,95783.78
2019-03-15T10:01:58.875Z,95784.06
2019-03-15T10:04:27.758Z,95781.23
2019-03-15T10:06:53.909Z,95783.99
2019-03-15T10:09:21.993Z,95785.58
2019-03-15T10:11:47.827Z,95783.16
2019-03-15T10:14:19.028Z,95786.64
2019-03-15T10:16:44.864Z,95793.89
2019-03-15T10:19:13.520Z,95789.38
2019-03-15T10:21:39.609Z,95806.20
2019-03-15T10:24:05.421Z,95789.77
2019-03-15T10:26:31.267Z,95776.55
2019-03-15T10:28:57.104Z,95784.63
2019-03-15T10:31:26.812Z,95793.48
2019-03-15T10:33:53.028Z,95800.09
2019-03-15T10:36:18.873Z,95793.37
2019-03-15T10:38:44.729Z,95786.77
2019-03-15T10:41:13.567Z,95791.59
2019-03-15T10:43:39.698Z,95821.65
2019-03-15T10:46:08.553Z,95783.78
2019-03-15T10:48:34.404Z,95806.13
2019-03-15T10:51:03.375Z,95795.02
2019-03-15T10:53:29.214Z,95801.28
2019-03-15T10:56:00.338Z,95803.64
2019-03-15T10:58:26.062Z,95808.88
2019-03-15T11:00:52.329Z,95805.69
2019-03-15T11:03:18.136Z,95819.06
2019-03-15T11:05:44.232Z,95821.67
2019-03-15T11:08:10.050Z,95817.81
2019-03-15T11:10:35.869Z,95813.77
2019-03-15T11:13:04.998Z,95808.47
2019-03-15T11:15:31.216Z,95765.47
2019-03-15T11:18:00.335Z,95803.91
2019-03-15T11:20:26.173Z,95839.75
2019-03-15T11:22:52.689Z,95822.58
2019-03-15T11:25:18.612Z,95816.22
2019-03-15T11:27:47.581Z,95801.30
2019-03-15T11:30:13.545Z,95815.16
2019-03-15T11:32:44.440Z,95803.20
2019-03-15T11:35:11.060Z,95810.09
2019-03-15T11:37:36.888Z,95820.52
2019-03-15T11:40:06.503Z,95831.84
2019-03-15T11:42:32.351Z,95813.62
2019-03-15T11:44:58.266Z,95812.21
2019-03-15T11:47:24.118Z,95816.36
2019-03-15T11:49:49.930Z,95816.48
2019-03-15T11:52:15.744Z,95808.81
2019-03-15T11:54:44.350Z,95791.16
2019-03-15T11:57:10.186Z,95829.27
2019-03-15T11:59:38.901Z,95817.91
2019-03-15T12:02:04.765Z,95831.87
2019-03-15T12:04:33.615Z,95819.31
2019-03-15T12:06:59.679Z,95835.89
2019-03-15T12:09:28.860Z,95820.86
2019-03-15T12:11:54.931Z,95837.30
2019-03-15T12:14:20.873Z,95831.28
2019-03-15T12:16:46.977Z,95833.18
2019-03-15T12:19:13.061Z,95842.89
2019-03-15T12:21:42.166Z,95830.22
2019-03-15T12:24:08.010Z,95837.33
2019-03-15T12:26:40.393Z,95837.33
2019-03-15T12:29:01.677Z,95826.91
2019-03-15T12:31:28.669Z,95810.69
2019-03-15T12:33:54.751Z,95826.56
2019-03-15T12:36:25.375Z,95839.69
2019-03-15T12:38:51.453Z,95840.64
2019-03-15T12:41:20.081Z,95844.30
2019-03-15T12:43:45.884Z,95847.75
2019-03-15T12:46:14.547Z,95829.05
2019-03-15T12:48:40.668Z,95853.91
2019-03-15T12:51:06.808Z,95824.44
2019-03-15T12:53:32.641Z,95843.12
2019-03-15T12:55:58.534Z,95847.63
2019-03-15T12:58:27.357Z,95850.48
2019-03-15T13:00:53.203Z,95838.53
2019-03-15T13:03:19.189Z,95836.03
2019-03-15T13:05:45.324Z,95842.69
2019-03-15T13:08:16.077Z,95838.16
2019-03-15T13:10:41.882Z,95857.41
2019-03-15T13:13:10.741Z,95840.66
2019-03-15T13:15:36.838Z,95856.16
2019-03-15T13:18:05.778Z,95856.12
2019-03-15T13:20:31.975Z,95862.87
2019-03-15T13:22:57.911Z,95846.59
2019-03-15T13:25:23.724Z,95811.45
2019-03-15T13:27:49.870Z,95852.16
2019-03-15T13:30:15.713Z,95852.52
2019-03-15T13:32:41.680Z,95876.16
2019-03-15T13:35:10.673Z,95871.55
2019-03-15T13:37:36.608Z,95876.52
2019-03-15T13:40:07.479Z,95865.62
2019-03-15T13:42:33.597Z,95864.68
2019-03-15T13:44:59.745Z,95859.72
2019-03-15T13:47:25.623Z,95847.73
2019-03-15T13:49:54.499Z,95859.22
2019-03-15T13:52:20.307Z,95856.14
2019-03-15T13:54:49.186Z,95863.60
2019-03-15T13:57:21.004Z,95865.61
2019-03-15T13:59:45.893Z,95861.06
2019-03-15T14:02:11.814Z,95871.67
2019-03-15T14:04:37.631Z,95854.73
2019-03-15T14:07:03.617Z,95870.50
2019-03-15T14:09:29.625Z,95878.95
2019-03-15T14:11:56.155Z,95863.79
2019-03-15T14:14:21.986Z,95863.91
2019-03-15T14:16:51.369Z,95867.93
2019-03-15T14:19:17.423Z,95892.45
2019-03-15T14:21:48.618Z,95865.58
2019-03-15T14:24:14.075Z,95892.22
2019-03-15T14:26:39.932Z,95862.24
2019-03-15T14:29:05.854Z,95858.91
2019-03-15T14:31:33.910Z,95869.12
2019-03-15T14:33:59.737Z,95872.68
2019-03-15T14:36:30.534Z,95859.04
2019-03-15T14:38:56.441Z,95858.56
2019-03-15T14:41:22.485Z,95851.81
2019-03-15T14:43:48.776Z,95862.25
2019-03-15T14:46:14.875Z,95864.70
2019-03-15T14:48:41.001Z,95861.41
2019-03-15T14:51:06.919Z,95882.47
2019-03-15T14:53:37.472Z,95883.66
2019-03-15T14:56:03.494Z,95877.61
2019-03-15T14:58:32.666Z,95890.05
2019-03-15T15:00:58.501Z,95822.41
2019-03-15T15:03:27.373Z,95887.44
2019-03-15T15:05:53.183Z,95892.30
2019-03-15T15:08:19.143Z,95884.38
2019-03-15T15:10:44.951Z,95891.34
2019-03-15T15:13:15.363Z,95905.92
2019-03-15T15:15:41.185Z,95894.80
2019-03-15T15:18:07.281Z,95892.05
2019-03-15T15:20:33.106Z,95894.31
2019-03-15T15:22:58.925Z,95894.06
2019-03-15T15:25:26.545Z,95901.66
2019-03-15T15:28:03.967Z,95905.44
2019-03-15T15:30:20.539Z,95906.38
2019-03-15T15:32:46.497Z,95925.11
2019-03-15T15:35:18.611Z,95916.70
2019-03-15T15:37:44.441Z,95906.22
2019-03-15T15:40:11.564Z,95897.30
2019-03-15T15:42:37.386Z,95917.00
2019-03-15T15:45:08.221Z,95911.87
2019-03-15T15:47:34.038Z,95900.49
2019-03-15T15:49:59.977Z,95898.24
2019-03-15T15:52:25.797Z,95891.70
2019-03-15T15:54:51.948Z,95913.60
2019-03-15T15:57:18.059Z,95903.67
2019-03-15T15:59:43.881Z,95924.98
2019-03-15T16:02:12.445Z,95929.94
2019-03-15T16:04:38.277Z,95935.39
2019-03-15T16:07:06.868Z,95926.98
2019-03-15T16:09:32.946Z,95939.66
2019-03-15T16:12:02.038Z,95913.46
2019-03-15T16:14:28.157Z,95914.66
2019-03-15T16:16:55.571Z,95909.44
2019-03-15T16:19:21.701Z,95916.31
2019-03-15T16:21:50.555Z,95923.63
2019-03-15T16:24:16.381Z,95930.24
2019-03-15T16:26:45.277Z,95918.17
2019-03-15T16:29:11.155Z,95936.50
2019-03-15T16:31:37.007Z,95933.44
2019-03-15T16:34:03.140Z,95927.13
2019-03-15T16:36:29.236Z,95932.48
2019-03-15T16:38:58.400Z,95938.85
2019-03-15T16:41:24.253Z,95927.73
2019-03-15T16:43:51.549Z,95940.39
2019-03-15T16:46:17.640Z,95926.42
2019-03-15T16:48:46.519Z,95952.36
2019-03-15T16:51:19.372Z,95944.30
2019-03-15T16:53:42.850Z,95954.86
2019-03-15T16:56:08.686Z,95973.09
2019-03-15T16:58:45.446Z,95967.39
2019-03-15T17:01:05.341Z,95968.80
2019-03-15T17:03:31.163Z,95980.31
2019-03-15T17:05:57.395Z,95981.36
2019-03-15T17:08:23.199Z,95980.52
2019-03-15T17:10:49.118Z,95974.61
2019-03-15T17:13:14.965Z,95992.28
2019-03-15T17:15:42.630Z,96010.16
2019-03-15T17:18:08.451Z,95991.67
2019-03-15T17:20:36.821Z,95989.27
2019-03-15T17:23:02.637Z,96002.89
2019-03-15T17:25:33.514Z,95977.88
2019-03-15T17:27:59.350Z,95956.52
2019-03-15T17:30:28.549Z,95994.23
2019-03-15T17:32:54.401Z,95975.44
2019-03-15T17:35:23.038Z,95980.65
2019-03-15T17:37:49.271Z,96006.20
2019-03-15T17:40:16.325Z,95990.02
2019-03-15T17:42:42.433Z,95981.97
2019-03-15T17:45:08.935Z,95991.44
2019-03-15T17:47:34.773Z,96002.45
2019-03-15T17:50:00.607Z,95990.38
2019-03-15T17:52:29.472Z,95988.48
2019-03-15T17:54:55.294Z,95992.53
2019-03-15T17:57:24.203Z,96013.22
2019-03-15T18:00:28.026Z,96008.45
2019-03-15T18:02:54.124Z,95992.55
2019-03-15T18:05:19.944Z,96000.36
2019-03-15T18:07:45.843Z,95993.66
2019-03-15T18:10:11.756Z,96003.59
2019-03-15T18:12:37.569Z,96000.55
2019-03-15T18:15:08.430Z,96000.80
2019-03-15T18:17:34.594Z,95984.33
2019-03-15T18:20:00.530Z,95980.32
2019-03-15T18:22:26.349Z,95988.93
2019-03-15T18:24:52.168Z,95994.83
2019-03-15T18:27:17.977Z,95994.95
2019-03-15T18:29:43.802Z,96005.20
2019-03-15T18:32:09.903Z,95992.52
2019-03-15T18:34:36.000Z,96003.16
2019-03-15T18:37:01.933Z,95989.58
2019-03-15T18:39:27.706Z,95986.13
2019-03-15T18:41:53.511Z,95990.39
2019-03-15T18:44:19.332Z,95992.28
2019-03-15T18:46:45.428Z,95996.20
2019-03-15T18:49:11.280Z,95992.55
2019-03-15T18:51:37.402Z,95984.74
2019-03-15T18:54:16.723Z,95988.39
2019-03-15T18:56:30.958Z,95988.75
2019-03-15T18:58:56.865Z,96002.16
2019-03-15T19:01:22.641Z,96002.52
2019-03-15T19:03:48.768Z,96013.38
2019-03-15T19:06:14.628Z,96000.47
2019-03-15T19:08:40.449Z,95997.66
2019-03-15T19:11:06.416Z,96006.77
2019-03-15T19:13:32.467Z,96017.78
2019-03-15T19:15:58.325Z,96012.57
2019-03-15T19:18:24.112Z,96024.90
2019-03-15T19:20:50.362Z,96029.97
2019-03-15T19:23:16.549Z,96035.89
2019-03-15T19:25:42.642Z,96042.66
2019-03-15T19:28:08.754Z,96054.12
2019-03-15T19:30:34.583Z,96044.03
2019-03-15T19:33:00.724Z,96042.38
2019-03-15T19:35:26.532Z,96042.02
2019-03-15T19:37:52.665Z,96045.19
2019-03-15T19:40:19.178Z,96041.47
2019-03-15T19:42:45.871Z,96051.72
2019-03-15T19:45:14.269Z,96050.55
2019-03-15T19:47:40.473Z,96054.78
2019-03-15T19:50:12.371Z,96047.25
2019-03-15T19:52:38.194Z,96056.35
2019-03-15T19:55:07.350Z,96052.80
2019-03-15T19:57:33.471Z,96065.98
2019-03-15T20:00:07.928Z,96051.05
2019-03-15T20:02:27.584Z,96056.45
2019-03-15T20:04:53.482Z,96069.33
2019-03-15T20:07:19.354Z,96061.88
2019-03-15T20:09:45.503Z,96063.16
2019-03-15T20:12:11.340Z,96079.44
2019-03-15T20:14:37.201Z,96077.36
2019-03-15T20:17:03.010Z,96065.39
2019-03-15T20:19:29.158Z,96082.97
2019-03-15T20:21:54.980Z,96063.38
2019-03-15T20:24:23.844Z,96067.77
2019-03-15T20:26:49.662Z,96080.38
2019-03-15T20:29:19.984Z,96082.42
2019-03-15T20:31:46.074Z,96085.97
2019-03-15T20:34:14.683Z,96081.48
2019-03-15T20:36:40.771Z,96078.88
2019-03-15T20:39:09.891Z,96087.89
2019-03-15T20:41:35.813Z,96085.03
2019-03-15T20:44:01.738Z,96079.47
2019-03-15T20:46:35.586Z,96086.33
2019-03-15T20:48:55.287Z,96093.38
2019-03-15T20:51:21.114Z,96102.61
2019-03-15T20:53:46.962Z,96092.08
2019-03-15T20:56:14.178Z,96097.67
2019-03-15T20:58:40.281Z,96105.66
2019-03-15T21:01:08.960Z,96100.27
2019-03-15T21:03:34.783Z,96115.13
2019-03-15T21:06:03.880Z,96109.83
2019-03-15T21:08:30.005Z,96124.81
2019-03-15T21:10:59.674Z,96125.34
2019-03-15T21:13:25.535Z,96125.70
2019-03-15T21:15:53.160Z,96133.28
2019-03-15T21:18:19.298Z,96126.59
2019-03-15T21:20:48.362Z,96131.43
2019-03-15T21:23:14.460Z,96154.72
2019-03-15T21:25:40.281Z,96136.77
2019-03-15T21:28:06.100Z,96134.66
2019-03-15T21:30:32.220Z,96133.09
2019-03-15T21:32:59.625Z,96131.73
2019-03-15T21:35:25.445Z,96141.34
2019-03-15T21:37:56.167Z,96142.64
2019-03-15T21:40:22.057Z,96135.41
2019-03-15T21:42:50.831Z,96138.43
2019-03-15T21:45:16.680Z,96160.55
2019-03-15T21:47:45.649Z,96168.04
2019-03-15T21:50:14.266Z,96180.47
2019-03-15T21:52:40.115Z,96156.97
2019-03-15T21:55:06.011Z,96155.12
2019-03-15T21:57:34.598Z,96138.68
2019-03-15T22:00:00.424Z,96170.28
2019-03-15T22:02:26.531Z,96154.02
2019-03-15T22:04:52.361Z,96153.16
2019-03-15T22:07:18.465Z,96156.12
2019-03-15T22:09:47.156Z,96157.64
2019-03-15T22:12:13.005Z,96169.61
2019-03-15T22:14:41.622Z,96156.07
2019-03-15T22:17:07.714Z,96174.27
2019-03-15T22:19:36.927Z,96170.01
2019-03-15T22:22:02.804Z,96181.30
2019-03-15T22:24:28.609Z,96159.44
2019-03-15T22:26:54.436Z,96173.91
2019-03-15T22:29:22.651Z,96167.59
2019-03-15T22:31:48.455Z,96153.06
2019-03-15T22:34:21.461Z,96147.28
2019-03-15T22:36:47.531Z,96165.03
2019-03-15T22:39:13.377Z,96151.67
2019-03-15T22:41:39.174Z,96141.19
2019-03-15T22:44:05.021Z,96141.94
2019-03-15T22:46:30.803Z,96145.31
2019-03-15T22:48:56.638Z,96139.48
2019-03-15T22:51:25.234Z,96138.14
2019-03-15T22:53:51.444Z,96147.23
2019-03-15T22:56:20.053Z,96146.88
2019-03-15T22:58:45.859Z,96151.87
2019-03-15T23:01:14.497Z,96145.73
2019-03-15T23:03:40.337Z,96156.92
2019-03-15T23:06:09.395Z,96147.34
2019-03-15T23:08:35.206Z,96153.12
2019-03-15T23:11:04.087Z,96159.52
2019-03-15T23:13:30.168Z,96176.61
2019-03-15T23:15:55.986Z,96171.05
2019-03-15T23:18:21.805Z,96181.08
2019-03-15T23:20:48.669Z,96175.88
2019-03-15T23:23:23.757Z,96200.22
2019-03-15T23:25:45.641Z,96184.50
2019-03-15T23:28:11.924Z,96193.41
2019-03-15T23:30:37.759Z,96185.61
2019-03-15T23:33:06.351Z,96186.25
2019-03-15T23:35:32.168Z,96184.37
2019-03-15T23:37:59.352Z,96194.31
2019-03-15T23:40:25.158Z,96199.12
2019-03-15T23:42:55.944Z,96200.63
2019-03-15T23:45:21.768Z,96200.63
2019-03-15T23:47:50.822Z,96206.11
2019-03-15T23:50:16.713Z,96216.72
2019-03-15T23:52:42.529Z,96210.22
2019-03-15T23:55:08.460Z,96199.64
2019-03-15T23:57:34.293Z,96209.95
